createdAt,value
2022-12-11T00:02:13.648Z,21.92
2022-12-11T00:04:41.540Z,24.23
2022-12-11T00:07:10.739Z,25.38
2022-12-11T00:09:38.655Z,28.17
2022-12-11T00:12:07.431Z,29.73
2022-12-11T00:14:35.288Z,33.78
2022-12-11T00:17:03.026Z,37.90
2022-12-11T00:19:30.804Z,40.95
2022-12-11T00:21:58.499Z,42.00
2022-12-11T00:24:27.483Z,47.00
2022-12-11T00:26:55.167Z,52.30
2022-12-11T00:29:22.896Z,56.17
2022-12-11T00:31:50.613Z,62.78
2022-12-11T00:34:18.432Z,63.88
2022-12-11T00:36:46.242Z,69.30
2022-12-11T00:39:13.995Z,74.53
2022-12-11T00:41:43.036Z,76.53
2022-12-11T00:44:10.671Z,84.00
2022-12-11T00:46:38.455Z,85.00
2022-12-11T00:49:06.165Z,94.50
2022-12-11T00:51:33.839Z,102.93
2022-12-11T00:54:01.526Z,107.18
2022-12-11T00:56:29.285Z,110.45
2022-12-11T00:58:58.309Z,115.65
2022-12-11T01:01:26.356Z,122.20
2022-12-11T01:03:54.421Z,123.60
2022-12-11T01:06:23.016Z,128.98
2022-12-11T01:09:12.172Z,136.13
2022-12-11T01:11:39.133Z,135.07
2022-12-11T01:14:08.208Z,143.02
2022-12-11T01:16:35.918Z,146.32
2022-12-11T01:19:03.654Z,153.13
2022-12-11T01:21:31.365Z,159.60
2022-12-11T01:23:59.050Z,165.88
2022-12-11T01:26:26.738Z,171.18
2022-12-11T01:28:54.478Z,178.60
2022-12-11T01:31:23.502Z,186.70
2022-12-11T01:33:51.165Z,189.45
2022-12-11T01:36:20.254Z,199.68
2022-12-11T01:38:48.350Z,204.52
2022-12-11T01:41:16.055Z,214.02
2022-12-11T01:44:00.654Z,222.50
2022-12-11T01:46:29.965Z,227.27
2022-12-11T01:48:57.726Z,234.18
2022-12-11T01:51:25.549Z,241.02
2022-12-11T01:53:54.670Z,247.93
2022-12-11T01:56:22.342Z,254.65
2022-12-11T01:58:53.083Z,260.95
2022-12-11T02:01:23.441Z,268.92
2022-12-11T02:04:17.987Z,274.38
2022-12-11T02:06:46.705Z,277.13
2022-12-11T02:09:15.311Z,281.92
2022-12-11T02:11:48.840Z,286.88
2022-12-11T02:14:20.228Z,298.05
2022-12-11T02:16:49.964Z,299.20
2022-12-11T02:19:29.178Z,303.83
2022-12-11T02:21:56.843Z,310.42
2022-12-11T02:24:40.769Z,315.98
2022-12-11T02:27:15.110Z,321.90
2022-12-11T02:29:46.642Z,325.77
2022-12-11T02:32:16.202Z,331.50
2022-12-11T02:34:45.486Z,331.65
2022-12-11T02:37:16.082Z,335.92
2022-12-11T02:39:43.943Z,342.52
2022-12-11T02:42:11.887Z,347.15
2022-12-11T02:44:39.603Z,351.80
2022-12-11T02:47:09.812Z,348.83
2022-12-11T02:49:37.499Z,358.38
2022-12-11T02:52:05.489Z,360.58
2022-12-11T02:54:34.481Z,362.15
2022-12-11T02:57:04.654Z,364.17
2022-12-11T02:59:34.543Z,363.70
2022-12-11T03:02:02.357Z,365.92
2022-12-11T03:04:31.469Z,369.80
2022-12-11T03:07:01.397Z,369.63
2022-12-11T03:09:29.219Z,367.98
2022-12-11T03:11:56.885Z,371.40
2022-12-11T03:14:24.532Z,370.77
2022-12-11T03:16:55.343Z,369.88
2022-12-11T03:19:28.156Z,367.75
2022-12-11T03:22:00.423Z,370.73
2022-12-11T03:24:30.692Z,374.42
2022-12-11T03:27:01.405Z,365.85
2022-12-11T03:29:32.451Z,375.27
2022-12-11T03:32:01.846Z,368.10
2022-12-11T03:34:31.329Z,365.67
2022-12-11T03:37:00.604Z,362.77
2022-12-11T03:39:30.842Z,365.30
2022-12-11T03:41:58.556Z,361.63
2022-12-11T03:44:26.249Z,368.95
2022-12-11T03:46:53.887Z,362.48
2022-12-11T03:49:24.243Z,361.90
2022-12-11T03:51:52.389Z,361.00
2022-12-11T03:54:21.409Z,355.55
2022-12-11T03:56:49.133Z,352.60
2022-12-11T03:59:16.818Z,349.23
2022-12-11T04:01:44.559Z,355.17
2022-12-11T04:04:12.429Z,350.73
2022-12-11T04:06:40.131Z,346.85
2022-12-11T04:09:07.821Z,342.27
2022-12-11T04:11:36.869Z,338.30
2022-12-11T04:14:22.862Z,338.83
2022-12-11T04:16:50.516Z,332.30
2022-12-11T04:19:36.761Z,333.10
2022-12-11T04:22:22.200Z,328.13
2022-12-11T04:24:50.093Z,325.65
2022-12-11T04:27:39.257Z,324.70
2022-12-11T04:30:08.326Z,319.30
2022-12-11T04:32:35.974Z,311.85
2022-12-11T04:35:03.799Z,307.35
2022-12-11T04:37:31.487Z,307.30
2022-12-11T04:39:59.183Z,305.10
2022-12-11T04:42:28.182Z,304.13
2022-12-11T04:44:55.867Z,299.80
2022-12-11T04:47:23.664Z,295.77
2022-12-11T04:49:51.319Z,287.42
2022-12-11T04:52:19.197Z,283.90
2022-12-11T04:54:46.980Z,287.63
2022-12-11T04:57:14.643Z,283.67
2022-12-11T04:59:43.672Z,279.20
2022-12-11T05:02:11.327Z,278.73
2022-12-11T05:04:39.014Z,274.58
2022-12-11T05:07:06.649Z,274.38
2022-12-11T05:09:34.344Z,263.50
2022-12-11T05:12:02.033Z,266.20
2022-12-11T05:14:31.880Z,259.63
2022-12-11T05:17:00.868Z,253.45
2022-12-11T05:19:28.651Z,253.10
2022-12-11T05:21:59.049Z,251.93
2022-12-11T05:24:26.722Z,251.05
2022-12-11T05:26:54.377Z,241.85
2022-12-11T05:29:22.066Z,235.38
2022-12-11T05:31:49.724Z,238.32
2022-12-11T05:34:18.918Z,240.15
2022-12-11T05:36:47.182Z,223.15
2022-12-11T05:39:14.836Z,224.18
2022-12-11T05:41:42.511Z,222.05
2022-12-11T05:44:11.448Z,219.43
2022-12-11T05:46:39.257Z,210.95
2022-12-11T05:49:06.982Z,205.20
2022-12-11T05:51:35.987Z,204.45
2022-12-11T05:54:03.717Z,200.40
2022-12-11T05:56:32.443Z,199.20
2022-12-11T05:59:00.445Z,193.02
2022-12-11T06:01:29.044Z,187.30
2022-12-11T06:03:57.117Z,180.60
2022-12-11T06:06:24.850Z,179.38
2022-12-11T06:08:54.030Z,177.63
2022-12-11T06:11:24.104Z,174.80
2022-12-11T06:13:52.285Z,171.35
2022-12-11T06:16:20.372Z,167.73
2022-12-11T06:18:48.150Z,160.15
2022-12-11T06:21:16.120Z,160.43
2022-12-11T06:23:43.936Z,155.98
2022-12-11T06:26:13.078Z,153.63
2022-12-11T06:28:40.730Z,149.48
2022-12-11T06:31:08.655Z,145.93
2022-12-11T06:33:36.415Z,144.00
2022-12-11T06:36:04.188Z,137.10
2022-12-11T06:38:31.871Z,133.02
2022-12-11T06:41:01.819Z,133.48
2022-12-11T06:43:30.822Z,129.60
2022-12-11T06:46:03.881Z,128.98
2022-12-11T06:48:32.145Z,119.60
2022-12-11T06:50:59.798Z,122.10
2022-12-11T06:53:27.719Z,120.88
2022-12-11T06:55:55.402Z,117.85
2022-12-11T06:58:23.050Z,115.55
2022-12-11T07:00:52.099Z,112.93
2022-12-11T07:03:19.977Z,110.20
2022-12-11T07:05:47.626Z,107.20
2022-12-11T07:08:15.769Z,105.18
2022-12-11T07:10:43.475Z,102.13
2022-12-11T07:13:11.178Z,101.43
2022-12-11T07:15:40.545Z,97.93
2022-12-11T07:18:10.686Z,96.55
2022-12-11T07:20:38.578Z,93.28
2022-12-11T07:23:06.434Z,91.22
2022-12-11T07:25:34.138Z,90.25
2022-12-11T07:28:01.815Z,86.63
2022-12-11T07:30:29.449Z,84.85
2022-12-11T07:32:57.187Z,82.28
2022-12-11T07:35:26.299Z,79.43
2022-12-11T07:37:53.981Z,78.75
2022-12-11T07:40:21.691Z,76.45
2022-12-11T07:42:49.343Z,74.22
2022-12-11T07:45:17.121Z,73.72
2022-12-11T07:47:44.843Z,71.13
2022-12-11T07:50:12.518Z,68.32
2022-12-11T07:52:41.587Z,67.68
2022-12-11T07:55:10.280Z,62.78
2022-12-11T07:57:38.054Z,63.72
2022-12-11T08:00:06.929Z,59.65
2022-12-11T08:02:40.198Z,58.75
2022-12-11T08:05:09.480Z,57.80
2022-12-11T08:07:37.368Z,55.78
2022-12-11T08:10:07.143Z,53.70
2022-12-11T08:12:34.846Z,54.05
2022-12-11T08:15:02.556Z,51.97
2022-12-11T08:17:33.917Z,49.45
2022-12-11T08:20:05.320Z,49.60
2022-12-11T08:22:33.046Z,47.63
2022-12-11T08:25:00.743Z,46.40
2022-12-11T08:27:30.586Z,43.97
2022-12-11T08:29:58.298Z,35.60
2022-12-11T08:32:25.982Z,35.72
2022-12-11T08:34:53.631Z,36.95
2022-12-11T08:37:21.308Z,36.33
2022-12-11T08:39:49.004Z,34.83
2022-12-11T08:42:16.712Z,35.22
2022-12-11T08:44:45.987Z,32.60
2022-12-11T08:47:15.257Z,32.63
2022-12-11T08:49:42.918Z,31.58
2022-12-11T08:52:10.615Z,30.50
2022-12-11T08:54:38.470Z,29.25
2022-12-11T08:57:06.147Z,29.17
2022-12-11T08:59:34.026Z,28.63
2022-12-11T09:02:03.041Z,27.33
2022-12-11T09:04:30.814Z,26.17
2022-12-11T09:06:58.561Z,22.92
2022-12-11T09:09:26.254Z,21.60
2022-12-11T09:11:54.022Z,21.40
2022-12-11T09:14:21.952Z,20.90
2022-12-11T09:16:49.621Z,19.98
2022-12-11T09:19:18.606Z,18.55
2022-12-11T09:21:46.277Z,17.45
2022-12-11T09:24:14.201Z,16.17
2022-12-11T09:26:42.070Z,11.40
2022-12-11T09:29:13.361Z,13.15
2022-12-11T09:31:41.081Z,12.27
2022-12-11T09:34:09.926Z,12.05
2022-12-11T09:36:39.188Z,11.65
2022-12-11T09:39:07.708Z,10.52
2022-12-11T09:41:40.303Z,10.32
2022-12-11T09:44:17.688Z,10.07
2022-12-11T09:46:45.456Z,9.52
2022-12-11T09:49:21.262Z,9.27
2022-12-11T09:51:51.608Z,8.20
2022-12-11T09:54:19.392Z,8.43
2022-12-11T09:56:48.863Z,8.05
2022-12-11T09:59:19.871Z,7.57
2022-12-11T10:01:50.561Z,7.85
2022-12-11T10:04:29.387Z,6.82
2022-12-11T10:07:03.188Z,6.50
2022-12-11T10:09:34.370Z,6.80
2022-12-11T10:12:08.059Z,6.13
2022-12-11T10:14:44.848Z,6.00
2022-12-11T10:17:14.163Z,6.10
2022-12-11T10:19:42.197Z,6.18
2022-12-11T10:22:13.772Z,5.88
2022-12-11T10:25:10.004Z,5.78
2022-12-11T10:27:31.972Z,5.03
2022-12-11T10:30:03.427Z,5.22
2022-12-11T10:32:33.456Z,5.18
2022-12-11T10:35:03.595Z,5.20
2022-12-11T10:37:32.728Z,5.10
2022-12-11T10:40:00.403Z,5.45
2022-12-11T10:42:28.082Z,5.13
2022-12-11T10:45:00.372Z,5.07
2022-12-11T10:47:28.039Z,5.00
2022-12-11T10:49:58.169Z,5.20
2022-12-11T10:52:27.003Z,4.68
2022-12-11T10:55:00.136Z,5.25
2022-12-11T10:57:29.483Z,5.43
2022-12-11T10:59:57.199Z,4.65
2022-12-11T11:02:26.304Z,5.07
2022-12-11T11:04:54.196Z,5.20
2022-12-11T11:07:23.636Z,5.05
2022-12-11T11:09:51.727Z,4.65
2022-12-11T11:12:23.389Z,4.40
2022-12-11T11:15:00.727Z,4.20
2022-12-11T11:17:33.823Z,6.03
2022-12-11T11:20:07.374Z,5.10
2022-12-11T11:22:38.168Z,5.10
2022-12-11T11:25:06.549Z,5.07
2022-12-11T11:27:36.938Z,4.72
2022-12-11T11:30:06.185Z,4.50
2022-12-11T11:32:34.913Z,4.40
2022-12-11T11:35:24.499Z,5.25
2022-12-11T11:38:01.491Z,5.10
2022-12-11T11:40:30.729Z,4.93
2022-12-11T11:43:06.212Z,4.65
2022-12-11T11:45:36.019Z,5.32
2022-12-11T11:48:11.434Z,5.00
2022-12-11T11:50:39.516Z,5.30
2022-12-11T11:53:10.207Z,5.40
2022-12-11T11:55:43.603Z,5.22
2022-12-11T11:58:15.624Z,5.07
2022-12-11T12:00:43.347Z,4.90
2022-12-11T12:03:11.871Z,5.18
2022-12-11T12:05:43.986Z,5.20
2022-12-11T12:08:14.086Z,4.47
2022-12-11T12:10:45.180Z,4.93
2022-12-11T12:13:47.587Z,4.88
2022-12-11T12:16:22.936Z,5.05
2022-12-11T12:18:57.583Z,5.30
2022-12-11T12:21:28.381Z,5.55
2022-12-11T12:24:09.063Z,4.60
2022-12-11T12:26:37.582Z,5.07
2022-12-11T12:29:14.039Z,5.43
2022-12-11T12:31:49.430Z,4.78
2022-12-11T12:34:21.320Z,5.07
2022-12-11T12:36:52.284Z,4.85
2022-12-11T12:39:22.955Z,5.57
2022-12-11T12:41:53.972Z,5.28
2022-12-11T12:44:23.857Z,5.00
2022-12-11T12:46:55.404Z,5.32
2022-12-11T12:49:34.416Z,5.32
2022-12-11T12:52:02.500Z,5.30
2022-12-11T12:54:30.284Z,5.50
2022-12-11T12:56:58.126Z,5.07
2022-12-11T12:59:28.638Z,5.07
2022-12-11T13:01:57.489Z,5.13
2022-12-11T13:04:54.334Z,5.22
2022-12-11T13:07:20.260Z,5.00
2022-12-11T13:09:57.737Z,4.80
2022-12-11T13:12:43.925Z,5.13
2022-12-11T13:15:30.907Z,5.28
2022-12-11T13:17:58.719Z,4.88
2022-12-11T13:20:27.341Z,4.70
2022-12-11T13:22:57.237Z,5.22
2022-12-11T13:25:28.186Z,5.60
2022-12-11T13:28:05.898Z,5.18
2022-12-11T13:30:35.465Z,5.78
2022-12-11T13:33:05.029Z,5.38
2022-12-11T13:35:33.326Z,5.38
2022-12-11T13:38:07.123Z,5.50
2022-12-11T13:40:40.032Z,4.55
2022-12-11T13:43:11.144Z,4.30
2022-12-11T13:45:45.575Z,4.38
2022-12-11T13:48:18.886Z,4.50
2022-12-11T13:50:47.082Z,4.65
2022-12-11T13:53:15.441Z,4.20
2022-12-11T13:55:43.501Z,4.45
2022-12-11T13:58:20.523Z,5.28
2022-12-11T14:01:00.176Z,5.70
2022-12-11T14:03:27.974Z,5.93
2022-12-11T14:05:58.635Z,5.93
2022-12-11T14:08:30.567Z,6.47
2022-12-11T14:10:58.313Z,6.28
2022-12-11T14:13:27.175Z,5.93
2022-12-11T14:15:58.876Z,5.70
2022-12-11T14:18:28.597Z,5.78
2022-12-11T14:20:57.236Z,5.88
2022-12-11T14:23:26.604Z,5.32
2022-12-11T14:25:55.110Z,5.95
2022-12-11T14:28:23.175Z,5.70
2022-12-11T14:30:51.731Z,5.55
2022-12-11T14:33:23.019Z,5.93
2022-12-11T14:35:50.812Z,5.28
2022-12-11T14:38:20.153Z,5.50
2022-12-11T14:40:50.224Z,4.95
2022-12-11T14:43:21.586Z,4.72
2022-12-11T14:45:49.800Z,5.20
2022-12-11T14:48:22.179Z,4.95
2022-12-11T14:50:50.835Z,5.18
2022-12-11T14:53:21.217Z,5.30
2022-12-11T14:55:49.748Z,4.95
2022-12-11T14:58:19.905Z,5.18
2022-12-11T15:00:57.335Z,5.90
2022-12-11T15:03:27.521Z,5.22
2022-12-11T15:05:56.743Z,5.32
2022-12-11T15:08:27.689Z,5.30
2022-12-11T15:11:05.975Z,5.28
2022-12-11T15:13:33.918Z,6.00
2022-12-11T15:16:01.745Z,5.00
2022-12-11T15:18:32.144Z,4.65
2022-12-11T15:21:00.692Z,5.43
2022-12-11T15:23:28.630Z,4.78
2022-12-11T15:25:57.926Z,4.82
2022-12-11T15:28:30.112Z,5.38
2022-12-11T15:30:58.783Z,5.15
2022-12-11T15:33:31.056Z,5.07
2022-12-11T15:36:04.376Z,5.00
2022-12-11T15:38:34.408Z,5.13
2022-12-11T15:41:02.349Z,4.88
2022-12-11T15:43:30.571Z,5.45
2022-12-11T15:45:58.280Z,5.32
2022-12-11T15:48:25.999Z,5.20
2022-12-11T15:50:53.690Z,4.78
2022-12-11T15:53:22.676Z,5.35
2022-12-11T15:55:50.820Z,6.00
2022-12-11T15:58:19.816Z,6.07
2022-12-11T16:00:47.576Z,5.60
2022-12-11T16:03:16.680Z,5.82
2022-12-11T16:05:44.544Z,5.97
2022-12-11T16:08:15.031Z,5.95
2022-12-11T16:10:44.211Z,5.68
2022-12-11T16:13:12.130Z,5.50
2022-12-11T16:15:40.000Z,5.97
2022-12-11T16:18:08.879Z,5.80
2022-12-11T16:20:36.899Z,5.45
2022-12-11T16:23:04.787Z,5.15
2022-12-11T16:25:32.726Z,5.93
2022-12-11T16:28:02.134Z,5.20
2022-12-11T16:30:29.989Z,6.00
2022-12-11T16:32:57.975Z,6.60
2022-12-11T16:35:25.853Z,5.75
2022-12-11T16:37:54.049Z,7.18
2022-12-11T16:40:22.029Z,6.53
2022-12-11T16:42:50.192Z,6.18
2022-12-11T16:45:19.998Z,6.13
2022-12-11T16:47:47.786Z,5.47
2022-12-11T16:50:16.039Z,5.15
2022-12-11T16:52:44.015Z,4.70
2022-12-11T16:55:12.474Z,5.00
2022-12-11T16:57:40.451Z,4.90
2022-12-11T17:00:11.972Z,5.00
2022-12-11T17:02:41.156Z,4.78
2022-12-11T17:05:09.173Z,4.45
2022-12-11T17:07:36.974Z,4.88
2022-12-11T17:10:04.922Z,4.90
2022-12-11T17:12:32.641Z,4.45
2022-12-11T17:15:00.336Z,4.45
2022-12-11T17:17:28.021Z,4.40
2022-12-11T17:19:58.261Z,4.03
2022-12-11T17:22:26.225Z,4.68
2022-12-11T17:24:54.224Z,4.30
2022-12-11T17:27:22.850Z,3.88
2022-12-11T17:29:50.781Z,4.25
2022-12-11T17:32:18.802Z,4.32
2022-12-11T17:34:48.431Z,4.30
2022-12-11T17:37:17.464Z,4.35
2022-12-11T17:39:46.455Z,5.13
2022-12-11T17:42:14.255Z,4.45
2022-12-11T17:44:41.917Z,4.80
2022-12-11T17:47:11.871Z,4.13
2022-12-11T17:49:39.647Z,4.47
2022-12-11T17:52:07.330Z,4.65
2022-12-11T17:54:36.407Z,4.18
2022-12-11T17:57:04.078Z,4.03
2022-12-11T17:59:31.822Z,4.28
2022-12-11T18:01:59.541Z,4.05
2022-12-11T18:04:27.245Z,4.05
2022-12-11T18:06:54.951Z,4.13
2022-12-11T18:09:22.652Z,4.15
2022-12-11T18:11:51.826Z,4.28
2022-12-11T18:14:19.519Z,4.05
2022-12-11T18:16:47.236Z,4.00
2022-12-11T18:19:15.592Z,3.92
2022-12-11T18:21:45.537Z,3.88
2022-12-11T18:24:13.270Z,4.05
2022-12-11T18:26:42.685Z,3.70
2022-12-11T18:29:11.722Z,4.13
2022-12-11T18:31:42.703Z,4.10
2022-12-11T18:34:11.020Z,3.90
2022-12-11T18:36:40.570Z,4.03
2022-12-11T18:39:08.281Z,4.60
2022-12-11T18:41:35.957Z,3.70
2022-12-11T18:44:09.342Z,3.78
2022-12-11T18:46:39.476Z,3.92
2022-12-11T18:49:07.320Z,3.72
2022-12-11T18:51:35.029Z,3.78
2022-12-11T18:54:02.682Z,3.70
2022-12-11T18:56:30.392Z,3.90
2022-12-11T18:58:58.099Z,3.67
2022-12-11T19:01:26.795Z,3.75
2022-12-11T19:04:02.365Z,3.58
2022-12-11T19:06:33.068Z,3.22
2022-12-11T19:09:00.786Z,3.90
2022-12-11T19:11:29.841Z,3.70
2022-12-11T19:13:57.701Z,3.28
2022-12-11T19:16:26.369Z,3.60
2022-12-11T19:18:55.401Z,3.50
2022-12-11T19:21:23.103Z,3.38
2022-12-11T19:23:50.755Z,3.30
2022-12-11T19:26:19.363Z,3.60
2022-12-11T19:28:47.394Z,3.58
2022-12-11T19:31:16.245Z,3.55
2022-12-11T19:33:44.257Z,3.30
2022-12-11T19:36:13.968Z,3.40
2022-12-11T19:38:42.082Z,3.28
2022-12-11T19:41:11.462Z,3.38
2022-12-11T19:43:39.174Z,3.60
2022-12-11T19:46:07.900Z,3.47
2022-12-11T19:48:37.318Z,3.30
2022-12-11T19:51:05.811Z,3.38
2022-12-11T19:53:34.894Z,3.40
2022-12-11T19:56:02.744Z,3.47
2022-12-11T19:58:30.446Z,3.30
2022-12-11T20:00:58.580Z,3.40
2022-12-11T20:03:26.414Z,3.40
2022-12-11T20:05:54.204Z,3.42
2022-12-11T20:08:43.688Z,3.20
2022-12-11T20:11:17.288Z,3.58
2022-12-11T20:13:46.539Z,3.40
2022-12-11T20:16:14.483Z,3.47
2022-12-11T20:18:42.721Z,3.88
2022-12-11T20:21:12.451Z,3.10
2022-12-11T20:23:40.107Z,3.30
2022-12-11T20:26:08.879Z,3.40
2022-12-11T20:28:38.338Z,3.58
2022-12-11T20:31:06.555Z,3.42
2022-12-11T20:33:34.380Z,3.17
2022-12-11T20:36:02.220Z,3.17
2022-12-11T20:38:34.304Z,3.55
2022-12-11T20:41:02.393Z,3.35
2022-12-11T20:43:30.107Z,3.17
2022-12-11T20:46:00.014Z,3.33
2022-12-11T20:48:27.770Z,3.50
2022-12-11T20:50:55.428Z,3.13
2022-12-11T20:53:23.206Z,3.67
2022-12-11T20:55:52.214Z,3.05
2022-12-11T20:58:20.491Z,2.97
2022-12-11T21:00:48.385Z,3.03
2022-12-11T21:03:17.462Z,3.33
2022-12-11T21:05:45.723Z,3.25
2022-12-11T21:08:13.485Z,3.00
2022-12-11T21:10:42.531Z,2.80
2022-12-11T21:13:10.193Z,3.13
2022-12-11T21:15:38.160Z,3.15
2022-12-11T21:18:06.089Z,3.08
2022-12-11T21:20:35.163Z,3.20
2022-12-11T21:23:03.031Z,3.08
2022-12-11T21:25:30.973Z,2.92
2022-12-11T21:27:58.755Z,3.10
2022-12-11T21:30:26.443Z,3.35
2022-12-11T21:32:54.199Z,2.85
2022-12-11T21:35:22.431Z,2.95
2022-12-11T21:37:51.473Z,3.40
2022-12-11T21:40:19.299Z,3.03
2022-12-11T21:42:46.958Z,2.70
2022-12-11T21:48:02.286Z,3.20
2022-12-11T21:50:29.966Z,2.92
2022-12-11T21:52:58.951Z,3.20
2022-12-11T21:55:26.671Z,3.20
2022-12-11T21:57:54.941Z,3.00
2022-12-11T22:00:22.989Z,2.90
2022-12-11T22:02:50.864Z,3.13
2022-12-11T22:05:18.540Z,2.92
2022-12-11T22:07:46.268Z,3.00
2022-12-11T22:10:15.332Z,2.88
2022-12-11T22:12:43.013Z,2.90
2022-12-11T22:15:11.348Z,2.90
2022-12-11T22:17:39.283Z,3.25
2022-12-11T22:20:07.757Z,3.03
2022-12-11T22:22:35.462Z,2.95
2022-12-11T22:25:03.526Z,3.15
2022-12-11T22:27:32.517Z,3.33
2022-12-11T22:30:00.184Z,3.05
2022-12-11T22:32:28.086Z,3.13
2022-12-11T22:34:57.622Z,2.92
2022-12-11T22:37:25.324Z,3.22
2022-12-11T22:39:52.987Z,2.90
2022-12-11T22:42:20.660Z,2.97
2022-12-11T22:44:49.663Z,2.72
2022-12-11T22:47:17.372Z,2.70
2022-12-11T22:49:45.053Z,3.20
2022-12-11T22:52:12.720Z,3.05
2022-12-11T22:54:40.493Z,3.15
2022-12-11T22:57:08.289Z,2.88
2022-12-11T22:59:36.392Z,3.35
2022-12-11T23:02:05.464Z,3.15
2022-12-11T23:04:33.268Z,3.10
2022-12-11T23:07:00.951Z,2.78
2022-12-11T23:09:28.691Z,3.00
2022-12-11T23:11:58.314Z,3.05
2022-12-11T23:14:26.485Z,2.90
2022-12-11T23:16:54.312Z,3.17
2022-12-11T23:19:25.595Z,3.20
2022-12-11T23:21:53.638Z,2.83
2022-12-11T23:24:21.347Z,2.97
2022-12-11T23:26:49.042Z,3.13
2022-12-11T23:29:16.715Z,2.70
2022-12-11T23:31:44.420Z,2.85
2022-12-11T23:34:12.111Z,2.65
2022-12-11T23:36:41.118Z,2.80
2022-12-11T23:39:08.790Z,2.88
2022-12-11T23:41:36.846Z,2.70
2022-12-11T23:44:04.625Z,2.95
2022-12-11T23:46:32.800Z,2.47
2022-12-11T23:49:00.563Z,3.03
2022-12-11T23:51:28.248Z,2.95
2022-12-11T23:53:57.267Z,2.70
2022-12-11T23:56:25.664Z,3.00
2022-12-11T23:58:53.493Z,2.75
